createdAt,value
2023-04-26T00:00:48.373Z,96.24
2023-04-26T00:03:17.093Z,96.92
2023-04-26T00:05:45.816Z,97.22
2023-04-26T00:08:15.922Z,97.23
2023-04-26T00:10:44.495Z,96.35
2023-04-26T00:13:13.165Z,96.73
2023-04-26T00:15:41.846Z,96.63
2023-04-26T00:18:11.090Z,96.44
2023-04-26T00:20:40.115Z,96.36
2023-04-26T00:23:09.527Z,96.27
2023-04-26T00:25:40.000Z,96.34
2023-04-26T00:28:08.472Z,96.81
2023-04-26T00:30:41.580Z,96.43
2023-04-26T00:33:10.264Z,96.15
2023-04-26T00:35:39.695Z,96.89
2023-04-26T00:38:08.907Z,97.15
2023-04-26T00:40:38.903Z,96.40
2023-04-26T00:43:08.501Z,96.49
2023-04-26T00:45:37.515Z,96.57
2023-04-26T00:48:06.421Z,96.81
2023-04-26T00:50:36.934Z,96.62
2023-04-26T00:53:06.405Z,96.67
2023-04-26T00:55:35.577Z,97.04
2023-04-26T00:58:05.668Z,97.24
2023-04-26T01:00:34.477Z,97.71
2023-04-26T01:03:03.740Z,98.09
2023-04-26T01:05:32.473Z,98.53
2023-04-26T01:08:02.930Z,97.74
2023-04-26T01:10:32.702Z,98.01
2023-04-26T01:13:01.827Z,99.27
2023-04-26T01:15:33.714Z,98.84
2023-04-26T01:18:03.416Z,98.68
2023-04-26T01:20:32.852Z,98.26
2023-04-26T01:23:02.811Z,98.86
2023-04-26T01:25:31.662Z,98.48
2023-04-26T01:28:00.052Z,98.50
2023-04-26T01:30:28.711Z,99.09
2023-04-26T01:32:57.354Z,99.62
2023-04-26T01:35:25.886Z,99.87
2023-04-26T01:37:54.522Z,99.54
2023-04-26T01:40:24.721Z,99.98
2023-04-26T01:42:53.363Z,100.00
2023-04-26T01:45:21.741Z,100.00
2023-04-26T01:47:50.674Z,100.00
2023-04-26T01:50:19.333Z,100.00
2023-04-26T01:52:47.811Z,100.00
2023-04-26T01:55:16.400Z,100.00
2023-04-26T01:57:46.435Z,100.00
2023-04-26T02:00:15.345Z,100.00
2023-04-26T02:02:43.853Z,100.00
2023-04-26T02:05:13.445Z,100.00
2023-04-26T02:07:42.015Z,100.00
2023-04-26T02:10:11.030Z,100.00
2023-04-26T02:12:39.584Z,100.00
2023-04-26T02:15:10.752Z,100.00
2023-04-26T02:17:40.265Z,100.00
2023-04-26T02:20:11.731Z,100.00
2023-04-26T02:22:40.157Z,100.00
2023-04-26T02:25:10.353Z,100.00
2023-04-26T02:27:39.225Z,100.00
2023-04-26T02:30:11.701Z,100.00
2023-04-26T02:32:40.435Z,100.00
2023-04-26T02:35:09.802Z,100.00
2023-04-26T02:37:38.700Z,100.00
2023-04-26T02:40:11.092Z,100.00
2023-04-26T02:42:39.526Z,100.00
2023-04-26T02:45:10.179Z,100.00
2023-04-26T02:47:39.056Z,100.00
2023-04-26T02:50:10.654Z,100.00
2023-04-26T02:52:39.244Z,100.00
2023-04-26T02:55:09.002Z,100.00
2023-04-26T02:57:37.545Z,100.00
2023-04-26T03:00:08.313Z,100.00
2023-04-26T03:02:38.736Z,100.00
2023-04-26T03:05:08.211Z,100.00
2023-04-26T03:07:36.902Z,100.00
2023-04-26T03:10:06.377Z,100.00
2023-04-26T03:12:35.514Z,100.00
2023-04-26T03:15:04.760Z,100.00
2023-04-26T03:17:33.288Z,100.00
2023-04-26T03:20:04.641Z,100.00
2023-04-26T03:22:33.060Z,100.00
2023-04-26T03:25:01.948Z,100.00
2023-04-26T03:27:30.454Z,100.00
2023-04-26T03:29:59.152Z,100.00
2023-04-26T03:32:27.756Z,100.00
2023-04-26T03:34:56.381Z,100.00
2023-04-26T03:37:26.362Z,100.00
2023-04-26T03:39:54.848Z,100.00
2023-04-26T03:42:23.389Z,100.00
2023-04-26T03:44:51.887Z,100.00
2023-04-26T03:47:20.525Z,100.00
2023-04-26T03:49:48.920Z,100.00
2023-04-26T03:52:17.380Z,100.00
2023-04-26T03:54:47.254Z,100.00
2023-04-26T03:57:15.791Z,100.00
2023-04-26T03:59:44.313Z,100.00
2023-04-26T04:02:13.809Z,100.00
2023-04-26T04:04:42.574Z,100.00
2023-04-26T04:07:11.157Z,100.00
2023-04-26T04:09:39.662Z,100.00
2023-04-26T04:12:09.580Z,100.00
2023-04-26T04:14:37.974Z,100.00
2023-04-26T04:17:06.696Z,100.00
2023-04-26T04:19:35.297Z,100.00
2023-04-26T04:22:03.826Z,100.00
2023-04-26T04:24:34.375Z,100.00
2023-04-26T04:27:03.651Z,100.00
2023-04-26T04:29:33.940Z,100.00
2023-04-26T04:32:02.485Z,100.00
2023-04-26T04:34:31.322Z,100.00
2023-04-26T04:36:59.805Z,100.00
2023-04-26T04:39:28.254Z,100.00
2023-04-26T04:41:56.926Z,100.00
2023-04-26T04:44:27.267Z,100.00
2023-04-26T04:46:58.779Z,100.00
2023-04-26T04:49:27.459Z,100.00
2023-04-26T04:51:56.157Z,100.00
2023-04-26T04:54:25.041Z,100.00
2023-04-26T04:56:53.680Z,100.00
2023-04-26T04:59:22.063Z,100.00
2023-04-26T05:01:50.900Z,100.00
2023-04-26T05:04:21.410Z,100.00
2023-04-26T05:06:50.139Z,100.00
2023-04-26T05:09:18.524Z,100.00
2023-04-26T05:11:47.069Z,100.00
2023-04-26T05:14:15.533Z,100.00
2023-04-26T05:16:44.134Z,100.00
2023-04-26T05:19:13.629Z,100.00
2023-04-26T05:21:43.624Z,100.00
2023-04-26T05:24:12.166Z,100.00
2023-04-26T05:26:40.881Z,100.00
2023-04-26T05:29:09.312Z,100.00
2023-04-26T05:31:38.308Z,100.00
2023-04-26T05:34:06.851Z,100.00
2023-04-26T05:36:35.275Z,100.00
2023-04-26T05:39:08.845Z,100.00
2023-04-26T05:41:37.770Z,100.00
2023-04-26T05:44:06.502Z,100.00
2023-04-26T05:46:35.855Z,100.00
2023-04-26T05:49:04.470Z,100.00
2023-04-26T05:51:32.909Z,100.00
2023-04-26T05:54:01.438Z,100.00
2023-04-26T05:56:31.600Z,100.00
2023-04-26T05:59:00.049Z,100.00
2023-04-26T06:01:28.643Z,100.00
2023-04-26T06:04:00.252Z,100.00
2023-04-26T06:06:29.752Z,100.00
2023-04-26T06:08:58.648Z,100.00
2023-04-26T06:11:27.143Z,100.00
2023-04-26T06:13:57.217Z,100.00
2023-04-26T06:16:25.706Z,100.00
2023-04-26T06:18:54.299Z,100.00
2023-04-26T06:21:22.779Z,100.00
2023-04-26T06:23:51.829Z,100.00
2023-04-26T06:26:20.719Z,100.00
2023-04-26T06:28:49.242Z,98.85
2023-04-26T06:31:20.108Z,98.00
2023-04-26T06:33:48.734Z,98.16
2023-04-26T06:36:17.216Z,99.66
2023-04-26T06:38:45.777Z,98.75
2023-04-26T06:41:14.281Z,98.90
2023-04-26T06:43:42.777Z,99.04
2023-04-26T06:46:11.269Z,98.28
2023-04-26T06:48:41.419Z,95.93
2023-04-26T06:51:10.172Z,95.35
2023-04-26T06:53:38.872Z,94.73
2023-04-26T06:56:07.935Z,94.93
2023-04-26T06:58:36.636Z,94.92
2023-04-26T07:01:06.679Z,93.47
2023-04-26T07:03:35.212Z,94.38
2023-04-26T07:06:05.403Z,94.38
2023-04-26T07:08:33.772Z,95.26
2023-04-26T07:11:02.219Z,93.37
2023-04-26T07:13:31.815Z,94.16
2023-04-26T07:16:00.271Z,94.10
2023-04-26T07:18:28.818Z,94.89
2023-04-26T07:20:57.244Z,95.62
2023-04-26T07:23:27.316Z,93.45
2023-04-26T07:25:56.392Z,92.07
2023-04-26T07:28:26.665Z,93.36
2023-04-26T07:30:55.481Z,89.34
2023-04-26T07:33:23.976Z,88.46
2023-04-26T07:35:56.223Z,89.73
2023-04-26T07:38:24.976Z,88.95
2023-04-26T07:40:55.086Z,87.81
2023-04-26T07:43:24.307Z,87.48
2023-04-26T07:45:52.826Z,87.07
2023-04-26T07:48:21.381Z,87.55
2023-04-26T07:50:49.801Z,88.10
2023-04-26T07:53:18.748Z,88.84
2023-04-26T07:55:47.639Z,83.35
2023-04-26T07:58:17.554Z,84.18
2023-04-26T08:00:46.019Z,82.27
2023-04-26T08:03:17.050Z,83.54
2023-04-26T08:05:46.152Z,84.48
2023-04-26T08:08:15.768Z,84.90
2023-04-26T08:10:45.059Z,84.70
2023-04-26T08:13:13.629Z,83.43
2023-04-26T08:15:43.741Z,79.55
2023-04-26T08:18:12.784Z,77.96
2023-04-26T08:20:41.326Z,77.57
2023-04-26T08:23:09.888Z,76.34
2023-04-26T08:25:38.689Z,74.35
2023-04-26T08:28:08.914Z,75.61
2023-04-26T08:30:37.537Z,76.61
2023-04-26T08:33:07.715Z,79.91
2023-04-26T08:35:36.420Z,78.73
2023-04-26T08:38:05.013Z,76.26
2023-04-26T08:40:34.110Z,75.67
2023-04-26T08:43:02.652Z,76.42
2023-04-26T08:45:35.378Z,73.66
2023-04-26T08:48:09.550Z,74.49
2023-04-26T08:50:40.341Z,74.88
2023-04-26T08:53:10.363Z,75.94
2023-04-26T08:55:40.015Z,77.51
2023-04-26T08:58:11.631Z,79.31
2023-04-26T09:00:40.526Z,79.18
2023-04-26T09:03:10.782Z,78.71
2023-04-26T09:05:44.351Z,77.28
2023-04-26T09:08:17.744Z,73.91
2023-04-26T09:10:46.952Z,73.61
2023-04-26T09:13:18.479Z,78.22
2023-04-26T09:15:53.420Z,79.01
2023-04-26T09:18:24.596Z,79.77
2023-04-26T09:21:04.988Z,81.13
2023-04-26T09:23:34.054Z,75.96
2023-04-26T09:26:19.779Z,75.03
2023-04-26T09:28:48.728Z,75.30
2023-04-26T09:31:39.150Z,75.42
2023-04-26T09:34:11.419Z,78.66
2023-04-26T09:36:50.723Z,82.90
2023-04-26T09:39:33.328Z,85.15
2023-04-26T09:42:02.320Z,84.34
2023-04-26T09:44:32.947Z,84.83
2023-04-26T09:47:03.457Z,83.34
2023-04-26T09:49:35.763Z,78.52
2023-04-26T09:52:08.027Z,79.04
2023-04-26T09:54:49.436Z,75.52
2023-04-26T09:57:20.306Z,74.48
2023-04-26T09:59:54.230Z,73.36
2023-04-26T10:02:26.876Z,70.98
2023-04-26T10:05:00.241Z,71.86
2023-04-26T10:07:29.696Z,71.18
2023-04-26T10:10:00.516Z,73.91
2023-04-26T10:12:30.218Z,75.20
2023-04-26T10:14:59.339Z,74.52
2023-04-26T10:17:30.036Z,72.77
2023-04-26T10:20:02.329Z,71.93
2023-04-26T10:22:35.629Z,73.38
2023-04-26T10:25:04.712Z,76.18
2023-04-26T10:27:53.149Z,75.18
2023-04-26T10:30:24.725Z,73.68
2023-04-26T10:33:16.925Z,72.17
2023-04-26T10:36:07.083Z,73.31
2023-04-26T10:38:37.347Z,71.57
2023-04-26T10:41:34.740Z,72.18
2023-04-26T10:44:45.965Z,67.90
2023-04-26T10:47:28.220Z,65.31
2023-04-26T10:50:08.619Z,66.84
2023-04-26T10:53:08.130Z,68.64
2023-04-26T10:55:42.017Z,70.76
2023-04-26T10:58:29.165Z,74.67
2023-04-26T11:01:18.016Z,76.74
2023-04-26T11:04:06.565Z,75.82
2023-04-26T11:06:49.862Z,74.26
2023-04-26T11:09:40.013Z,75.41
2023-04-26T11:12:12.824Z,74.29
2023-04-26T11:14:45.827Z,73.62
2023-04-26T11:17:14.566Z,71.35
2023-04-26T11:19:43.251Z,68.46
2023-04-26T11:22:11.788Z,70.04
2023-04-26T11:24:42.009Z,67.84
2023-04-26T11:27:11.581Z,68.53
2023-04-26T11:29:40.466Z,66.28
2023-04-26T11:32:09.570Z,68.18
2023-04-26T11:34:39.573Z,69.40
2023-04-26T11:37:08.678Z,69.03
2023-04-26T11:39:38.520Z,70.73
2023-04-26T11:42:27.601Z,68.36
2023-04-26T11:45:00.177Z,67.33
2023-04-26T11:47:30.997Z,67.55
2023-04-26T11:50:00.233Z,66.53
2023-04-26T11:52:29.783Z,64.38
2023-04-26T11:55:06.254Z,67.24
2023-04-26T11:57:36.752Z,65.57
2023-04-26T12:00:14.941Z,66.40
2023-04-26T12:02:47.260Z,66.83
2023-04-26T12:05:31.799Z,67.25
2023-04-26T12:08:01.793Z,67.17
2023-04-26T12:10:33.700Z,63.38
2023-04-26T12:13:03.979Z,59.46
2023-04-26T12:15:35.006Z,60.84
2023-04-26T12:18:11.248Z,60.00
2023-04-26T12:20:41.214Z,60.34
2023-04-26T12:23:14.912Z,59.37
2023-04-26T12:25:53.163Z,57.69
2023-04-26T12:28:24.642Z,58.74
2023-04-26T12:30:53.974Z,57.18
2023-04-26T12:33:23.405Z,54.87
2023-04-26T12:35:52.295Z,56.42
2023-04-26T12:38:21.198Z,55.53
2023-04-26T12:40:49.684Z,53.28
2023-04-26T12:43:19.790Z,54.37
2023-04-26T12:45:49.985Z,55.33
2023-04-26T12:48:18.625Z,56.27
2023-04-26T12:50:47.314Z,59.33
2023-04-26T12:53:15.792Z,60.04
2023-04-26T12:55:45.425Z,59.69
2023-04-26T12:58:14.116Z,59.54
2023-04-26T13:00:44.471Z,59.17
2023-04-26T13:03:15.200Z,59.52
2023-04-26T13:05:44.264Z,59.51
2023-04-26T13:08:13.143Z,63.07
2023-04-26T13:10:48.974Z,64.67
2023-04-26T13:13:17.423Z,67.06
2023-04-26T13:15:46.230Z,67.67
2023-04-26T13:18:18.279Z,67.26
2023-04-26T13:20:48.180Z,65.44
2023-04-26T13:23:16.912Z,64.27
2023-04-26T13:25:45.564Z,62.45
2023-04-26T13:28:14.530Z,62.74
2023-04-26T13:30:43.266Z,59.00
2023-04-26T13:33:11.835Z,56.00
2023-04-26T13:35:41.822Z,58.12
2023-04-26T13:38:10.301Z,56.67
2023-04-26T13:40:40.851Z,59.39
2023-04-26T13:43:09.324Z,61.01
2023-04-26T13:45:37.865Z,61.79
2023-04-26T13:48:06.627Z,64.74
2023-04-26T13:50:36.985Z,65.42
2023-04-26T13:53:07.015Z,64.59
2023-04-26T13:55:35.788Z,66.21
2023-04-26T13:58:04.317Z,65.13
2023-04-26T14:00:32.874Z,65.71
2023-04-26T14:03:01.719Z,65.00
2023-04-26T14:05:30.566Z,61.03
2023-04-26T14:07:59.512Z,62.20
2023-04-26T14:10:29.896Z,62.99
2023-04-26T14:12:58.397Z,65.95
2023-04-26T14:15:27.005Z,69.67
2023-04-26T14:17:55.498Z,71.87
2023-04-26T14:20:24.071Z,72.75
2023-04-26T14:22:52.648Z,74.70
2023-04-26T14:25:21.210Z,75.03
2023-04-26T14:27:53.040Z,75.10
2023-04-26T14:30:22.305Z,72.95
2023-04-26T14:32:50.982Z,71.76
2023-04-26T14:35:19.582Z,68.63
2023-04-26T14:37:48.069Z,65.63
2023-04-26T14:40:16.681Z,64.46
2023-04-26T14:42:46.268Z,63.65
2023-04-26T14:45:16.712Z,63.09
2023-04-26T14:47:45.191Z,61.58
2023-04-26T14:50:14.600Z,60.95
2023-04-26T14:52:43.151Z,63.00
2023-04-26T14:55:12.287Z,64.26
2023-04-26T14:57:42.471Z,66.14
2023-04-26T15:00:15.432Z,68.58
2023-04-26T15:02:46.007Z,68.74
2023-04-26T15:05:15.259Z,68.94
2023-04-26T15:07:44.060Z,70.44
2023-04-26T15:10:12.722Z,68.56
2023-04-26T15:12:41.298Z,67.43
2023-04-26T15:15:10.455Z,65.33
2023-04-26T15:17:39.077Z,64.59
2023-04-26T15:20:10.917Z,64.21
2023-04-26T15:22:39.978Z,64.87
2023-04-26T15:25:10.961Z,66.18
2023-04-26T15:27:39.842Z,69.00
2023-04-26T15:30:09.735Z,71.17
2023-04-26T15:32:38.507Z,72.87
2023-04-26T15:35:09.561Z,74.38
2023-04-26T15:37:39.056Z,74.29
2023-04-26T15:40:10.713Z,74.46
2023-04-26T15:42:40.022Z,73.35
2023-04-26T15:45:09.576Z,73.33
2023-04-26T15:47:38.713Z,73.62
2023-04-26T15:50:09.937Z,73.58
2023-04-26T15:52:39.494Z,72.58
2023-04-26T15:55:10.769Z,77.48
2023-04-26T15:57:39.221Z,71.78
2023-04-26T16:00:10.323Z,70.25
2023-04-26T16:02:39.212Z,70.68
2023-04-26T16:05:10.243Z,67.12
2023-04-26T16:07:39.420Z,66.66
2023-04-26T16:10:09.762Z,70.25
2023-04-26T16:12:39.983Z,68.83
2023-04-26T16:15:10.145Z,68.39
2023-04-26T16:17:39.486Z,68.24
2023-04-26T16:20:10.876Z,68.46
2023-04-26T16:22:39.397Z,68.86
2023-04-26T16:25:09.181Z,68.61
2023-04-26T16:27:37.855Z,69.36
2023-04-26T16:30:07.174Z,69.92
2023-04-26T16:32:35.705Z,69.51
2023-04-26T16:35:04.882Z,69.94
2023-04-26T16:37:34.820Z,69.80
2023-04-26T16:40:05.322Z,71.60
2023-04-26T16:42:33.895Z,69.96
2023-04-26T16:45:02.469Z,70.46
2023-04-26T16:47:31.255Z,70.59
2023-04-26T16:50:00.230Z,71.26
2023-04-26T16:52:28.906Z,70.19
2023-04-26T16:55:02.278Z,71.75
2023-04-26T16:57:30.764Z,71.36
2023-04-26T16:59:59.880Z,71.65
2023-04-26T17:02:28.608Z,72.04
2023-04-26T17:04:59.111Z,69.68
2023-04-26T17:07:27.634Z,70.81
2023-04-26T17:09:56.149Z,70.32
2023-04-26T17:12:26.269Z,70.25
2023-04-26T17:14:54.775Z,70.41
2023-04-26T17:17:23.360Z,70.47
2023-04-26T17:19:52.030Z,70.41
2023-04-26T17:22:21.106Z,71.57
2023-04-26T17:24:49.688Z,70.03
2023-04-26T17:27:18.236Z,70.67
2023-04-26T17:29:48.212Z,70.60
2023-04-26T17:32:16.946Z,71.65
2023-04-26T17:34:45.825Z,71.20
2023-04-26T17:37:14.400Z,71.13
2023-04-26T17:39:43.277Z,71.61
2023-04-26T17:42:12.072Z,71.81
2023-04-26T17:44:41.929Z,72.95
2023-04-26T17:47:12.114Z,73.51
2023-04-26T17:49:40.568Z,74.83
2023-04-26T17:52:09.091Z,76.95
2023-04-26T17:54:37.520Z,78.58
2023-04-26T17:57:07.964Z,78.68
2023-04-26T17:59:36.489Z,78.14
2023-04-26T18:02:05.125Z,78.89
2023-04-26T18:04:35.756Z,77.83
2023-04-26T18:07:04.935Z,78.04
2023-04-26T18:09:33.598Z,77.53
2023-04-26T18:12:02.978Z,78.49
2023-04-26T18:14:31.516Z,78.15
2023-04-26T18:17:00.100Z,78.35
2023-04-26T18:19:28.788Z,78.37
2023-04-26T18:21:58.692Z,78.04
2023-04-26T18:24:27.401Z,80.03
2023-04-26T18:26:56.140Z,79.00
2023-04-26T18:29:24.661Z,79.29
2023-04-26T18:31:53.393Z,79.09
2023-04-26T18:34:22.054Z,79.64
2023-04-26T18:36:50.601Z,79.32
2023-04-26T18:39:20.467Z,79.01
2023-04-26T18:41:48.958Z,79.35
2023-04-26T18:44:17.335Z,79.06
2023-04-26T18:46:47.065Z,79.60
2023-04-26T18:49:15.799Z,79.61
2023-04-26T18:51:45.544Z,80.46
2023-04-26T18:54:14.154Z,80.19
2023-04-26T18:56:44.297Z,79.63
2023-04-26T18:59:13.241Z,79.64
2023-04-26T19:01:41.856Z,79.63
2023-04-26T19:04:11.316Z,80.36
2023-04-26T19:06:41.893Z,80.76
2023-04-26T19:09:11.958Z,80.41
2023-04-26T19:11:40.634Z,81.31
2023-04-26T19:14:10.836Z,81.81
2023-04-26T19:16:39.772Z,84.78
2023-04-26T19:19:08.168Z,83.52
2023-04-26T19:21:36.907Z,82.63
2023-04-26T19:24:05.987Z,82.94
2023-04-26T19:26:34.564Z,83.21
2023-04-26T19:29:05.391Z,83.93
2023-04-26T19:31:36.660Z,83.35
2023-04-26T19:34:05.600Z,83.90
2023-04-26T19:36:34.980Z,83.88
2023-04-26T19:39:04.810Z,83.65
2023-04-26T19:41:33.296Z,83.83
2023-04-26T19:44:02.073Z,83.71
2023-04-26T19:46:30.599Z,84.00
2023-04-26T19:49:00.517Z,84.27
2023-04-26T19:51:29.067Z,84.47
2023-04-26T19:53:57.642Z,84.61
2023-04-26T19:56:26.130Z,84.64
2023-04-26T19:58:54.608Z,84.69
2023-04-26T20:01:23.099Z,85.66
2023-04-26T20:03:51.583Z,85.86
2023-04-26T20:06:21.615Z,85.97
2023-04-26T20:08:50.170Z,85.93
2023-04-26T20:11:19.394Z,86.24
2023-04-26T20:13:48.142Z,87.14
2023-04-26T20:16:16.967Z,88.83
2023-04-26T20:18:45.557Z,86.99
2023-04-26T20:21:14.114Z,86.76
2023-04-26T20:23:44.131Z,86.64
2023-04-26T20:26:12.566Z,86.85
2023-04-26T20:28:43.868Z,86.99
2023-04-26T20:31:12.561Z,86.95
2023-04-26T20:33:41.152Z,87.46
2023-04-26T20:36:09.891Z,87.51
2023-04-26T20:38:39.182Z,87.71
2023-04-26T20:41:09.417Z,87.53
2023-04-26T20:43:39.676Z,87.95
2023-04-26T20:46:08.415Z,87.44
2023-04-26T20:48:36.981Z,87.47
2023-04-26T20:51:05.604Z,87.52
2023-04-26T20:53:34.094Z,87.50
2023-04-26T20:56:02.618Z,87.74
2023-04-26T20:58:32.671Z,87.53
2023-04-26T21:01:01.219Z,87.71
2023-04-26T21:03:30.000Z,87.47
2023-04-26T21:05:58.725Z,87.90
2023-04-26T21:08:27.160Z,88.25
2023-04-26T21:10:55.855Z,88.34
2023-04-26T21:13:24.293Z,87.85
2023-04-26T21:15:56.556Z,87.94
2023-04-26T21:18:25.125Z,88.58
2023-04-26T21:20:53.630Z,88.13
2023-04-26T21:23:22.392Z,88.47
2023-04-26T21:25:51.665Z,88.73
2023-04-26T21:28:20.276Z,88.25
2023-04-26T21:30:48.857Z,88.25
2023-04-26T21:33:19.125Z,88.27
2023-04-26T21:35:47.654Z,87.98
2023-04-26T21:38:16.177Z,88.51
2023-04-26T21:40:44.705Z,87.98
2023-04-26T21:43:15.700Z,88.49
2023-04-26T21:45:44.194Z,88.88
2023-04-26T21:48:12.610Z,88.83
2023-04-26T21:50:42.529Z,89.33
2023-04-26T21:53:11.128Z,89.29
2023-04-26T21:55:39.622Z,89.16
2023-04-26T21:58:08.215Z,89.49
2023-04-26T22:00:36.976Z,89.14
2023-04-26T22:03:05.586Z,89.71
2023-04-26T22:05:34.228Z,89.63
2023-04-26T22:08:04.109Z,89.79
2023-04-26T22:10:32.625Z,90.38
2023-04-26T22:13:01.161Z,90.20
2023-04-26T22:15:30.063Z,90.28
2023-04-26T22:17:58.568Z,90.47
2023-04-26T22:20:27.147Z,90.07
2023-04-26T22:22:55.981Z,90.07
2023-04-26T22:25:26.970Z,90.75
2023-04-26T22:27:55.882Z,90.88
2023-04-26T22:30:25.985Z,91.24
2023-04-26T22:32:55.820Z,91.23
2023-04-26T22:35:25.490Z,91.18
2023-04-26T22:37:54.324Z,91.81
2023-04-26T22:40:23.060Z,91.44
2023-04-26T22:42:53.042Z,90.81
2023-04-26T22:45:21.717Z,91.59
2023-04-26T22:47:50.235Z,91.17
2023-04-26T22:50:18.748Z,91.58
2023-04-26T22:52:47.491Z,90.95
2023-04-26T22:55:16.245Z,91.95
2023-04-26T22:57:44.628Z,91.50
2023-04-26T23:00:16.215Z,91.57
2023-04-26T23:02:44.804Z,91.67
2023-04-26T23:05:13.512Z,91.99
2023-04-26T23:07:42.039Z,91.69
2023-04-26T23:10:11.093Z,91.21
2023-04-26T23:12:40.878Z,91.77
2023-04-26T23:15:10.274Z,92.23
2023-04-26T23:17:42.004Z,92.68
2023-04-26T23:20:13.177Z,92.36
2023-04-26T23:22:41.871Z,92.53
2023-04-26T23:25:11.392Z,92.44
2023-04-26T23:27:40.196Z,92.73
2023-04-26T23:30:16.383Z,92.13
2023-04-26T23:32:46.360Z,92.87
2023-04-26T23:35:15.076Z,92.27
2023-04-26T23:37:43.560Z,92.53
2023-04-26T23:40:12.733Z,93.20
2023-04-26T23:42:41.540Z,93.10
2023-04-26T23:45:11.790Z,92.71
2023-04-26T23:47:40.906Z,93.27
2023-04-26T23:50:11.417Z,93.17
2023-04-26T23:52:39.844Z,93.41
2023-04-26T23:55:10.015Z,93.06
2023-04-26T23:57:38.436Z,93.78
